createdAt,value
2023-02-03T00:00:14.277Z,11.80
2023-02-03T00:02:41.942Z,11.90
2023-02-03T00:05:11.001Z,11.90
2023-02-03T00:07:39.482Z,11.90
2023-02-03T00:10:08.877Z,12.10
2023-02-03T00:12:36.545Z,12.30
2023-02-03T00:15:04.477Z,11.90
2023-02-03T00:17:32.188Z,11.90
2023-02-03T00:19:59.865Z,12.20
2023-02-03T00:22:28.858Z,12.10
2023-02-03T00:24:56.473Z,12.40
2023-02-03T00:27:24.125Z,12.20
2023-02-03T00:29:51.786Z,12.20
2023-02-03T00:32:19.657Z,12.40
2023-02-03T00:34:47.471Z,12.50
2023-02-03T00:37:15.150Z,12.70
2023-02-03T00:39:44.146Z,12.60
2023-02-03T00:42:11.802Z,12.70
2023-02-03T00:44:39.457Z,12.60
2023-02-03T00:47:07.267Z,12.80
2023-02-03T00:49:34.958Z,12.50
2023-02-03T00:52:02.701Z,12.70
2023-02-03T00:54:32.045Z,12.90
2023-02-03T00:57:01.909Z,12.70
2023-02-03T00:59:29.559Z,12.60
2023-02-03T01:01:57.287Z,12.60
2023-02-03T01:04:25.004Z,12.60
2023-02-03T01:06:56.180Z,12.50
2023-02-03T01:09:23.987Z,12.60
2023-02-03T01:11:51.643Z,12.70
2023-02-03T01:14:20.661Z,12.80
2023-02-03T01:16:48.450Z,12.70
2023-02-03T01:19:16.818Z,12.80
2023-02-03T01:21:44.701Z,12.80
2023-02-03T01:24:12.441Z,12.40
2023-02-03T01:26:40.139Z,12.60
2023-02-03T01:29:08.769Z,12.70
2023-02-03T01:31:40.589Z,12.90
2023-02-03T01:34:12.156Z,13.10
2023-02-03T01:36:41.056Z,13.00
2023-02-03T01:39:08.794Z,13.00
2023-02-03T01:41:39.764Z,13.00
2023-02-03T01:44:42.314Z,13.00
2023-02-03T01:47:19.617Z,12.60
2023-02-03T01:49:52.527Z,13.00
2023-02-03T01:52:20.439Z,12.90
2023-02-03T01:54:50.639Z,12.90
2023-02-03T01:57:22.916Z,12.70
2023-02-03T01:59:53.608Z,13.00
2023-02-03T02:02:23.028Z,12.80
2023-02-03T02:04:56.478Z,12.80
2023-02-03T02:07:25.192Z,12.90
2023-02-03T02:09:53.509Z,12.90
2023-02-03T02:12:21.214Z,13.00
2023-02-03T02:14:49.522Z,12.80
2023-02-03T02:17:34.179Z,13.00
2023-02-03T02:20:39.181Z,12.90
2023-02-03T02:23:40.711Z,12.80
2023-02-03T02:26:36.768Z,12.90
2023-02-03T02:29:29.423Z,12.90
2023-02-03T02:32:05.884Z,12.70
2023-02-03T02:34:43.606Z,12.70
2023-02-03T02:37:21.503Z,12.80
2023-02-03T02:39:57.156Z,12.80
2023-02-03T02:42:32.918Z,12.90
2023-02-03T02:45:09.514Z,12.80
2023-02-03T02:47:39.435Z,12.50
2023-02-03T02:50:13.415Z,12.70
2023-02-03T02:52:43.734Z,12.80
2023-02-03T02:55:18.107Z,12.40
2023-02-03T02:57:48.545Z,12.80
2023-02-03T03:00:16.646Z,13.00
2023-02-03T03:02:45.714Z,13.00
2023-02-03T03:05:13.971Z,12.90
2023-02-03T03:07:46.254Z,13.20
2023-02-03T03:10:16.990Z,13.40
2023-02-03T03:12:50.119Z,13.20
2023-02-03T03:15:22.297Z,13.20
2023-02-03T03:17:57.433Z,13.30
2023-02-03T03:20:27.781Z,12.90
2023-02-03T03:23:00.392Z,12.90
2023-02-03T03:25:33.727Z,13.20
2023-02-03T03:28:06.726Z,13.20
2023-02-03T03:30:36.753Z,13.10
2023-02-03T03:33:07.810Z,13.10
2023-02-03T03:35:40.646Z,12.90
2023-02-03T03:38:12.265Z,13.20
2023-02-03T03:40:44.636Z,13.10
2023-02-03T03:43:16.935Z,13.00
2023-02-03T03:45:49.911Z,13.00
2023-02-03T03:48:23.324Z,12.80
2023-02-03T03:50:56.591Z,12.90
2023-02-03T03:53:26.418Z,13.10
2023-02-03T03:55:55.343Z,12.90
2023-02-03T03:58:26.736Z,13.20
2023-02-03T04:00:59.023Z,12.70
2023-02-03T04:03:36.368Z,13.00
2023-02-03T04:06:04.421Z,12.90
2023-02-03T04:08:32.282Z,13.10
2023-02-03T04:11:00.079Z,13.00
2023-02-03T04:13:27.789Z,13.10
2023-02-03T04:15:55.519Z,13.30
2023-02-03T04:18:23.302Z,12.90
2023-02-03T04:20:52.432Z,13.00
2023-02-03T04:23:20.162Z,12.80
2023-02-03T04:25:47.897Z,13.00
2023-02-03T04:28:17.606Z,13.00
2023-02-03T04:30:45.353Z,12.80
2023-02-03T04:33:13.027Z,13.20
2023-02-03T04:35:40.758Z,12.90
2023-02-03T04:38:09.785Z,12.90
2023-02-03T04:40:37.634Z,13.10
2023-02-03T04:43:08.685Z,12.70
2023-02-03T04:45:36.379Z,13.00
2023-02-03T04:48:04.971Z,13.40
2023-02-03T04:50:32.719Z,13.20
2023-02-03T04:53:01.062Z,13.30
2023-02-03T04:55:30.625Z,13.10
2023-02-03T04:57:58.833Z,13.40
2023-02-03T05:00:27.258Z,13.20
2023-02-03T05:02:55.704Z,12.90
2023-02-03T05:05:23.407Z,13.30
2023-02-03T05:07:51.207Z,13.20
2023-02-03T05:10:19.027Z,13.30
2023-02-03T05:12:48.100Z,13.30
2023-02-03T05:15:16.119Z,13.00
2023-02-03T05:17:43.935Z,13.20
2023-02-03T05:20:13.193Z,12.90
2023-02-03T05:22:41.177Z,13.10
2023-02-03T05:25:09.763Z,13.20
2023-02-03T05:27:39.458Z,13.00
2023-02-03T05:30:10.309Z,13.20
2023-02-03T05:32:38.090Z,13.00
2023-02-03T05:35:06.185Z,13.10
2023-02-03T05:37:33.892Z,12.80
2023-02-03T05:40:15.525Z,13.00
2023-02-03T05:42:48.070Z,13.10
2023-02-03T05:45:17.895Z,13.00
2023-02-03T05:47:45.574Z,13.20
2023-02-03T05:50:13.409Z,12.60
2023-02-03T05:52:41.094Z,13.10
2023-02-03T05:55:09.179Z,12.70
2023-02-03T05:57:36.925Z,12.80
2023-02-03T06:00:06.308Z,12.70
2023-02-03T06:02:35.297Z,12.80
2023-02-03T06:05:03.046Z,13.00
2023-02-03T06:07:30.764Z,13.10
2023-02-03T06:09:58.595Z,13.10
2023-02-03T06:12:28.259Z,13.10
2023-02-03T06:14:57.115Z,13.40
2023-02-03T06:17:24.772Z,13.20
2023-02-03T06:19:53.803Z,13.10
2023-02-03T06:22:21.499Z,13.40
2023-02-03T06:24:49.268Z,12.90
2023-02-03T06:27:17.235Z,13.10
2023-02-03T06:29:44.877Z,13.40
2023-02-03T06:32:12.598Z,13.40
2023-02-03T06:34:40.364Z,13.30
2023-02-03T06:37:09.622Z,13.20
2023-02-03T06:39:37.414Z,13.00
2023-02-03T06:42:05.286Z,13.30
2023-02-03T06:44:32.996Z,13.00
2023-02-03T06:47:02.070Z,12.90
2023-02-03T06:49:30.078Z,12.80
2023-02-03T06:51:57.850Z,13.00
2023-02-03T06:54:26.934Z,13.30
2023-02-03T06:56:54.892Z,12.60
2023-02-03T06:59:23.131Z,13.00
2023-02-03T07:01:50.876Z,12.90
2023-02-03T07:04:19.331Z,12.90
2023-02-03T07:06:47.080Z,12.70
2023-02-03T07:09:14.782Z,12.40
2023-02-03T07:11:43.839Z,12.40
2023-02-03T07:14:11.479Z,12.20
2023-02-03T07:16:39.243Z,12.40
2023-02-03T07:19:07.528Z,12.10
2023-02-03T07:21:35.218Z,12.40
2023-02-03T07:24:03.362Z,12.30
2023-02-03T07:26:31.096Z,12.00
2023-02-03T07:29:00.808Z,12.10
2023-02-03T07:37:06.156Z,12.00
2023-02-03T07:39:34.722Z,11.90
2023-02-03T07:42:06.068Z,12.30
2023-02-03T07:44:36.735Z,12.50
2023-02-03T07:49:47.231Z,12.20
2023-02-03T07:52:15.311Z,12.30
2023-02-03T07:54:43.363Z,12.00
2023-02-03T07:57:11.367Z,12.30
2023-02-03T07:59:40.963Z,11.90
2023-02-03T08:02:11.268Z,12.20
2023-02-03T08:04:45.752Z,12.40
2023-02-03T08:07:22.736Z,12.60
2023-02-03T08:09:51.532Z,12.40
2023-02-03T08:12:21.898Z,12.60
2023-02-03T08:15:03.682Z,12.40
2023-02-03T08:17:42.253Z,12.60
2023-02-03T08:20:21.079Z,12.80
2023-02-03T08:22:49.251Z,12.40
2023-02-03T08:25:22.557Z,12.60
2023-02-03T08:27:51.134Z,12.80
2023-02-03T08:30:31.495Z,12.60
2023-02-03T08:33:02.313Z,12.40
2023-02-03T08:35:30.657Z,12.40
2023-02-03T08:37:58.858Z,12.80
2023-02-03T08:40:27.535Z,12.90
2023-02-03T08:42:55.639Z,13.10
2023-02-03T08:45:25.090Z,12.60
2023-02-03T08:47:53.679Z,12.80
2023-02-03T08:50:21.821Z,12.90
2023-02-03T08:52:49.846Z,12.70
2023-02-03T08:55:17.787Z,12.80
2023-02-03T08:57:46.019Z,12.70
2023-02-03T09:00:15.467Z,12.70
2023-02-03T09:02:44.909Z,12.90
2023-02-03T09:05:12.957Z,12.40
2023-02-03T09:07:41.238Z,12.60
2023-02-03T09:10:10.060Z,12.80
2023-02-03T09:12:38.015Z,12.70
2023-02-03T09:15:08.099Z,12.50
2023-02-03T09:17:36.696Z,12.50
2023-02-03T09:20:16.465Z,12.70
2023-02-03T09:22:46.347Z,12.50
2023-02-03T09:25:16.343Z,12.70
2023-02-03T09:27:44.464Z,13.00
2023-02-03T09:30:31.634Z,12.90
2023-02-03T09:33:01.010Z,13.20
2023-02-03T09:36:04.244Z,13.20
2023-02-03T09:38:36.008Z,13.30
2023-02-03T09:41:32.561Z,13.30
2023-02-03T09:45:01.394Z,13.20
2023-02-03T09:47:50.226Z,13.50
2023-02-03T10:02:06.052Z,13.20
2023-02-03T10:10:00.466Z,13.30
2023-02-03T10:13:11.395Z,13.20
2023-02-03T10:16:03.857Z,13.10
2023-02-03T10:21:49.610Z,12.90
2023-02-03T11:00:32.479Z,13.40
2023-02-03T11:33:29.929Z,13.50
2023-02-03T12:27:52.310Z,13.70
2023-02-03T12:30:26.004Z,14.20
2023-02-03T12:32:58.292Z,14.30
2023-02-03T12:35:32.915Z,14.00
2023-02-03T12:38:06.416Z,14.30
2023-02-03T12:43:18.613Z,14.40
2023-02-03T12:45:53.982Z,14.60
2023-02-03T12:48:27.109Z,14.10
2023-02-03T12:50:59.369Z,14.30
2023-02-03T12:53:31.952Z,14.40
2023-02-03T12:56:05.056Z,14.30
2023-02-03T12:58:38.304Z,14.40
2023-02-03T13:01:10.729Z,14.40
2023-02-03T13:03:46.767Z,14.70
2023-02-03T13:06:23.073Z,14.60
2023-02-03T13:08:56.641Z,14.30
2023-02-03T13:11:30.029Z,14.20
2023-02-03T13:14:04.879Z,14.30
2023-02-03T13:16:37.075Z,14.30
2023-02-03T13:19:10.842Z,14.20
2023-02-03T13:21:38.690Z,13.90
2023-02-03T13:24:06.943Z,14.00
2023-02-03T13:26:49.691Z,13.90
2023-02-03T13:29:34.331Z,14.10
2023-02-03T13:32:16.794Z,14.30
2023-02-03T13:34:57.940Z,13.80
2023-02-03T13:37:39.748Z,14.00
2023-02-03T13:40:21.667Z,14.10
2023-02-03T13:42:55.249Z,14.30
2023-02-03T13:45:28.323Z,14.30
2023-02-03T13:47:59.861Z,14.20
2023-02-03T13:50:30.809Z,14.00
2023-02-03T13:53:02.617Z,13.70
2023-02-03T13:55:36.023Z,14.20
2023-02-03T13:58:04.669Z,14.00
2023-02-03T14:01:06.539Z,14.30
2023-02-03T14:03:45.522Z,14.20
2023-02-03T14:06:49.464Z,14.20
2023-02-03T14:09:22.202Z,13.90
2023-02-03T14:11:51.404Z,14.00
2023-02-03T14:15:04.079Z,14.00
2023-02-03T14:18:22.547Z,14.00
2023-02-03T14:20:57.836Z,13.90
2023-02-03T14:23:39.294Z,14.20
2023-02-03T14:26:07.173Z,14.10
2023-02-03T14:28:41.224Z,14.00
2023-02-03T14:31:15.005Z,14.30
2023-02-03T14:34:03.159Z,14.10
2023-02-03T14:36:42.252Z,14.10
2023-02-03T14:39:55.302Z,14.20
2023-02-03T14:42:46.174Z,13.80
2023-02-03T14:45:27.199Z,13.70
2023-02-03T14:48:06.900Z,13.70
2023-02-03T14:50:48.661Z,13.90
2023-02-03T14:53:31.696Z,13.80
2023-02-03T14:56:13.339Z,13.60
2023-02-03T14:58:46.710Z,14.10
2023-02-03T15:01:48.001Z,13.90
2023-02-03T15:04:24.368Z,13.30
2023-02-03T15:06:53.850Z,13.30
2023-02-03T15:09:31.255Z,13.40
2023-02-03T15:11:58.912Z,13.20
2023-02-03T15:14:30.212Z,13.30
2023-02-03T15:17:00.739Z,13.50
2023-02-03T15:19:32.865Z,13.40
2023-02-03T15:22:00.823Z,13.70
2023-02-03T15:24:38.045Z,13.20
2023-02-03T15:27:05.779Z,13.10
2023-02-03T15:29:36.344Z,13.50
2023-02-03T15:32:10.755Z,13.40
2023-02-03T15:34:42.540Z,13.50
2023-02-03T15:37:16.850Z,13.30
2023-02-03T15:39:57.957Z,13.20
2023-02-03T15:42:30.657Z,13.20
2023-02-03T15:45:03.176Z,13.20
2023-02-03T15:47:35.285Z,12.90
2023-02-03T15:50:16.622Z,13.10
2023-02-03T15:52:46.887Z,13.00
2023-02-03T15:55:21.258Z,12.90
2023-02-03T15:57:50.956Z,12.60
2023-02-03T16:00:31.817Z,12.90
2023-02-03T16:03:01.582Z,12.70
2023-02-03T16:05:32.398Z,12.80
2023-02-03T16:08:35.958Z,12.50
2023-02-03T16:11:22.074Z,12.80
2023-02-03T16:13:49.789Z,12.70
2023-02-03T16:16:21.949Z,12.80
2023-02-03T16:18:54.400Z,12.70
2023-02-03T16:21:52.774Z,12.70
2023-02-03T16:24:42.267Z,12.60
2023-02-03T16:27:36.192Z,12.70
2023-02-03T16:30:43.902Z,13.00
2023-02-03T16:33:32.396Z,12.60
2023-02-03T16:36:20.926Z,12.30
2023-02-03T16:39:07.248Z,12.60
2023-02-03T16:41:52.664Z,12.90
2023-02-03T16:44:39.185Z,12.70
2023-02-03T16:47:40.288Z,12.80
2023-02-03T16:50:38.108Z,13.00
2023-02-03T16:53:07.392Z,12.90
2023-02-03T16:55:35.167Z,12.80
2023-02-03T16:58:02.919Z,12.70
2023-02-03T17:00:31.966Z,12.70
2023-02-03T17:02:59.586Z,12.70
2023-02-03T17:05:27.420Z,12.80
2023-02-03T17:07:55.264Z,13.10
2023-02-03T17:10:23.383Z,12.60
2023-02-03T17:12:52.791Z,12.70
2023-02-03T17:15:20.529Z,12.80
2023-02-03T17:17:49.529Z,12.30
2023-02-03T17:20:17.719Z,12.80
2023-02-03T17:22:45.401Z,12.80
2023-02-03T17:25:13.140Z,12.60
2023-02-03T17:27:40.813Z,12.70
2023-02-03T17:30:09.465Z,12.80
2023-02-03T17:32:37.150Z,12.70
2023-02-03T17:35:06.422Z,13.00
2023-02-03T17:37:34.377Z,12.80
2023-02-03T17:53:57.082Z,12.60
2023-02-03T17:56:26.620Z,12.50
2023-02-03T17:58:56.680Z,12.10
2023-02-03T18:01:25.342Z,12.10
2023-02-03T18:03:56.105Z,12.20
2023-02-03T18:06:26.876Z,11.80
2023-02-03T18:08:54.544Z,12.30
2023-02-03T18:11:22.352Z,12.60
2023-02-03T18:13:50.892Z,12.40
2023-02-03T18:16:22.255Z,12.30
2023-02-03T18:18:51.324Z,12.20
2023-02-03T18:21:19.480Z,12.30
2023-02-03T18:23:51.032Z,12.40
2023-02-03T18:26:20.758Z,12.20
2023-02-03T18:28:52.536Z,12.40
2023-02-03T18:31:21.390Z,12.20
2023-02-03T18:33:49.350Z,12.30
2023-02-03T18:36:17.927Z,12.20
2023-02-03T18:38:48.248Z,12.20
2023-02-03T18:41:18.317Z,12.20
2023-02-03T18:43:46.849Z,12.00
2023-02-03T18:46:18.117Z,12.00
2023-02-03T18:48:46.121Z,11.80
2023-02-03T18:51:15.822Z,11.90
2023-02-03T18:53:45.009Z,12.10
2023-02-03T18:56:16.722Z,11.90
2023-02-03T18:58:44.920Z,11.90
2023-02-03T19:01:22.150Z,11.90
2023-02-03T19:03:49.864Z,12.10
2023-02-03T19:06:17.639Z,12.00
2023-02-03T19:08:45.798Z,12.10
2023-02-03T19:11:15.338Z,12.10
2023-02-03T19:13:43.628Z,11.90
2023-02-03T19:16:14.702Z,11.70
2023-02-03T19:18:42.668Z,11.80
2023-02-03T19:21:11.072Z,11.80
2023-02-03T19:23:38.723Z,11.40
2023-02-03T19:26:06.709Z,11.50
2023-02-03T19:28:35.828Z,11.60
2023-02-03T19:31:08.085Z,11.60
2023-02-03T19:33:36.296Z,11.40
2023-02-03T19:36:04.006Z,11.30
2023-02-03T19:38:31.690Z,11.50
2023-02-03T19:41:01.628Z,11.00
2023-02-03T19:43:29.700Z,11.10
2023-02-03T19:45:58.828Z,11.20
2023-02-03T19:48:26.780Z,11.40
2023-02-03T19:50:54.518Z,11.60
2023-02-03T19:53:24.119Z,11.10
2023-02-03T19:55:52.059Z,11.40
2023-02-03T19:58:19.751Z,11.20
2023-02-03T20:00:47.547Z,11.60
2023-02-03T20:03:17.603Z,11.20
2023-02-03T20:05:45.308Z,11.40
2023-02-03T20:08:14.799Z,11.40
2023-02-03T20:10:44.579Z,11.30
2023-02-03T20:13:13.084Z,11.60
2023-02-03T20:15:40.744Z,11.50
2023-02-03T20:18:08.782Z,11.50
2023-02-03T20:20:37.826Z,11.60
2023-02-03T20:23:05.484Z,11.90
2023-02-03T20:25:33.222Z,11.80
2023-02-03T20:28:02.471Z,11.60
2023-02-03T20:30:30.820Z,11.50
2023-02-03T20:32:58.680Z,11.70
2023-02-03T20:35:27.271Z,11.30
2023-02-03T20:37:56.266Z,11.70
2023-02-03T20:40:26.579Z,11.70
2023-02-03T20:42:54.612Z,11.30
2023-02-03T20:45:24.449Z,11.70
2023-02-03T20:47:52.771Z,11.80
2023-02-03T20:50:25.244Z,11.60
2023-02-03T20:52:58.075Z,11.50
2023-02-03T20:55:25.889Z,11.90
2023-02-03T20:57:55.812Z,11.80
2023-02-03T21:00:25.140Z,11.70
2023-02-03T21:03:11.402Z,11.40
2023-02-03T21:05:40.734Z,11.90
2023-02-03T21:08:14.354Z,11.80
2023-02-03T21:10:42.411Z,11.80
2023-02-03T21:13:20.621Z,11.90
2023-02-03T21:15:49.223Z,11.90
2023-02-03T21:18:29.437Z,11.90
2023-02-03T21:20:57.484Z,11.90
2023-02-03T21:23:31.919Z,11.90
2023-02-03T21:25:59.581Z,11.80
2023-02-03T21:28:28.930Z,11.80
2023-02-03T21:30:57.162Z,11.30
2023-02-03T21:33:40.550Z,11.30
2023-02-03T21:36:16.520Z,11.60
2023-02-03T21:38:47.263Z,11.70
2023-02-03T21:41:17.716Z,11.90
2023-02-03T21:43:46.990Z,12.10
2023-02-03T21:46:19.143Z,12.10
2023-02-03T21:48:50.614Z,12.30
2023-02-03T21:51:20.513Z,12.20
2023-02-03T21:53:53.753Z,12.10
2023-02-03T21:56:23.710Z,12.00
2023-02-03T21:58:53.347Z,12.00
2023-02-03T22:01:26.031Z,11.90
2023-02-03T22:03:54.517Z,11.70
2023-02-03T22:06:29.497Z,11.60
2023-02-03T22:08:59.546Z,11.90
2023-02-03T22:11:28.932Z,11.90
2023-02-03T22:13:57.498Z,11.60
2023-02-03T22:16:25.197Z,11.60
2023-02-03T22:18:53.310Z,11.80
2023-02-03T22:21:20.999Z,11.80
2023-02-03T22:23:49.175Z,12.00
2023-02-03T22:26:18.809Z,11.80
2023-02-03T22:28:47.158Z,11.70
2023-02-03T22:31:16.099Z,11.90
2023-02-03T22:33:44.200Z,11.80
2023-02-03T22:36:11.923Z,11.80
2023-02-03T22:38:41.055Z,11.90
2023-02-03T22:41:11.685Z,11.80
2023-02-03T22:43:41.415Z,11.60
2023-02-03T22:46:09.273Z,11.70
2023-02-03T22:48:36.994Z,11.70
2023-02-03T22:51:04.989Z,11.60
2023-02-03T22:53:34.707Z,11.60
2023-02-03T22:56:02.594Z,11.70
2023-02-03T22:58:30.381Z,11.50
2023-02-03T23:00:59.441Z,11.70
2023-02-03T23:03:27.168Z,11.50
2023-02-03T23:05:56.374Z,11.70
2023-02-03T23:08:24.035Z,11.60
2023-02-03T23:10:51.845Z,11.60
2023-02-03T23:13:19.866Z,11.70
2023-02-03T23:15:47.608Z,11.50
2023-02-03T23:18:16.645Z,11.60
2023-02-03T23:20:44.293Z,11.40
2023-02-03T23:23:11.946Z,11.20
2023-02-03T23:25:39.617Z,11.20
2023-02-03T23:28:07.384Z,11.50
2023-02-03T23:30:35.078Z,11.40
2023-02-03T23:33:02.901Z,11.40
2023-02-03T23:35:45.928Z,11.50
2023-02-03T23:38:14.288Z,11.40
2023-02-03T23:40:42.067Z,11.20
2023-02-03T23:43:09.769Z,11.40
2023-02-03T23:45:37.458Z,11.50
2023-02-03T23:48:05.896Z,11.40
2023-02-03T23:50:34.878Z,11.40
2023-02-03T23:53:02.542Z,11.40
2023-02-03T23:55:31.303Z,11.40
2023-02-03T23:57:59.031Z,11.40
